Ailey, GA

12:42 AM EDT on August 02, 2014 (GMT -0400)
South Treutlen Co. (KGATARRY2) Elev 236 ft | 32.32 °N, 82.60 °W | Change Station

Current weather conditions updated 9 seconds ago

Overcast
Overcast
71.8 °F
Feels Like 71.8 °F
N
0.0
Wind Variable Wind from North
Gusts 3.0 mph

Today is forecast to be Warmer than yesterday. A few thunderstorms possible.

Today
High -- | Low -- °F
--% Chance of Precip.
Yesterday
High -- | Low -- °F
Precip. -- in
6:45 AM 8:26 PM
Waxing Crescent, 32% visible
Pressure 30.01 in
Visibility 7.0 miles
Clouds Scattered Clouds 200 ft
Overcast 1100 ft
Dew Point 72 °F
Humidity 99%
Rainfall 0.00 in
Snow Depth Not available.
UV 0 out of 12
Pollen 4.20 out of 12
Air Quality Not available.
Flu Activity Not available.
METAR KAZE 020435Z AUTO 02004KT 7SM SCT002 OVC011 25/25 A3001 RMK AO2 LTG DSNT E T02460245

More Conditions Fewer Conditions

Pressure 30.01 in
Visibility 7.0 miles
Clouds Scattered Clouds 200 ft
Overcast 1100 ft
Dew Point 72 °F
Humidity 99%
Rainfall 0.00 in
Snow Depth Not available.
UV 0 out of 12
Pollen 4.20 out of 12
Air Quality Not available.
Flu Activity Not available.
METAR KAZE 020435Z AUTO 02004KT 7SM SCT002 OVC011 25/25 A3001 RMK AO2 LTG DSNT E T02460245

More Conditions Fewer Conditions

10-Day Weather Forecast

Almanac

Astronomy

Aug. 02, 2014 Rise Set
Actual Time 6:45 AM EDT 8:26 PM EDT
Civil Twilight 6:18 AM EDT 8:52 PM EDT
Nautical Twilight 5:46 AM EDT 9:24 PM EDT
Astronomical Twilight 5:13 AM EDT 9:58 PM EDT
Moon 12:41 PM EDT No Moon Set
Length of Visible Light 14h 34m
Length of Day
13h 40m
Tomorrow will be 1m 30s shorter.
Waxing Crescent, 32% of the Moon is Illuminated
Today
Waxing Crescent
Aug 3
First Quarter
Aug 10
Full
Aug 17
Last Quarter
Aug 25
New

Today's Extremes

State Highs State Lows

Community

WunderPhotos

Upload Photos

1,739,823 photos uploaded!

Nearby

Snow Depth

Station Depth Elevation
No new snow has been reported.

Earthquake Activity

City Distance Mag. Time & Date
No recent earthquake activity has been reported nearby.
Minimum magnitude displayed is 2.5.

Coastal Water Temperatures

Place Temperature
No Stations Reporting

Nearby Weather Stations

Station Location Temp. Dew Point Humidity Wind Precip. Elev Updated Type
South Treutlen Co., Soperton, GA 71.8 °F 72 °F 99% North  at  0.0 mph 0.00 in / hr 236 ft 12:41 AM EDT Rapid Fire
Springhill Road, Alamo, GA 72.5 °F 72 °F 99% NE  at  4.7 mph - / hr 259 ft 12:30 AM EDT Normal
RAWS MCRAE GA, McRae, GA 73 °F 71 °F 94% NNE  at  4 mph 0.00 in / hr 201 ft 12:03 AM EDT MADIS

Show More Stations Show Fewer Stations